Time;durP1;ratioP1;P1;durP2;ratioP2;P2;SDS_P1;SDS_P2;PMS_P1;PMS_P2;Temp;Humidity;BMP_temperature;BMP_pressure;BME280_temperature;BME280_humidity;BME280_pressure;Samples;Min_cycle;Max_cycle;Signal;HPM_P1;HPM_P2
2024/03/29 00:01:21;;;;;;;35.00;26.48;;;;;;;10.84;96.40;99674.03;5056291;28;20067;-78
2024/03/29 00:04:25;;;;;;;31.75;24.35;;;;;;;11.39;94.15;99672.00;5056203;28;20052;-78
2024/03/29 00:07:30;;;;;;;33.92;24.85;;;;;;;11.46;93.53;99671.22;5056186;28;20144;-78
2024/03/29 00:10:34;;;;;;;34.28;24.90;;;;;;;10.99;94.76;99667.97;5055183;28;20052;-78
2024/03/29 00:13:38;;;;;;;34.20;24.80;;;;;;;10.77;95.41;99668.44;5054978;28;20047;-77
2024/03/29 00:16:43;;;;;;;32.38;25.33;;;;;;;10.91;94.92;99659.84;5055952;28;20388;-77
2024/03/29 00:19:47;;;;;;;35.40;24.83;;;;;;;10.83;95.13;99664.31;5055759;28;20067;-77
2024/03/29 00:22:52;;;;;;;31.25;24.23;;;;;;;10.63;95.89;99673.50;5055646;28;20056;-77
2024/03/29 00:25:58;;;;;;;31.83;23.15;;;;;;;10.71;95.82;99687.84;5055596;28;20056;-78
2024/03/29 00:29:06;;;;;;;32.85;24.15;;;;;;;10.77;95.75;99697.97;5055666;28;20071;-77
2024/03/29 00:32:10;;;;;;;30.35;22.77;;;;;;;10.77;95.25;99695.28;5055147;28;20107;-77
2024/03/29 00:35:15;;;;;;;79.07;44.70;;;;;;;10.92;94.28;99688.38;5055544;28;20052;-75
2024/03/29 00:38:19;;;;;;;36.53;26.75;;;;;;;11.07;93.98;99697.59;5055433;28;20399;-76
2024/03/29 00:41:23;;;;;;;32.10;23.05;;;;;;;11.15;93.52;99694.16;5073808;28;20051;-76
2024/03/29 00:44:28;;;;;;;46.55;29.25;;;;;;;11.36;92.26;99689.28;5075354;28;20044;-76
2024/03/29 00:47:33;;;;;;;58.38;36.03;;;;;;;11.49;91.76;99680.81;5075167;28;20052;-75
2024/03/29 00:50:39;;;;;;;47.20;32.75;;;;;;;11.38;91.74;99686.44;5074820;28;20103;-76
2024/03/29 00:53:43;;;;;;;34.45;25.27;;;;;;;11.21;92.06;99696.19;5075169;28;20051;-77
2024/03/29 00:56:47;;;;;;;32.70;21.73;;;;;;;10.77;93.80;99697.13;5075199;28;20486;-78
2024/03/29 00:59:52;;;;;;;29.33;20.42;;;;;;;10.70;94.52;99702.25;5074298;28;20051;-78
2024/03/29 01:02:57;;;;;;;28.77;21.02;;;;;;;10.74;94.36;99700.94;5074265;28;20075;-78
2024/03/29 01:06:03;;;;;;;26.48;19.38;;;;;;;10.91;93.56;99704.66;5074911;28;20072;-78
2024/03/29 01:09:11;;;;;;;28.60;20.40;;;;;;;10.91;93.24;99704.66;5075258;28;20051;-78
2024/03/29 01:12:15;;;;;;;25.80;19.17;;;;;;;10.91;92.57;99705.47;5074885;28;20056;-77
2024/03/29 01:15:20;;;;;;;26.70;19.52;;;;;;;10.97;92.35;99714.78;5074912;28;20116;-77
2024/03/29 01:18:25;;;;;;;24.42;18.75;;;;;;;11.09;92.31;99709.03;5074542;28;20060;-78
2024/03/29 01:21:34;;;;;;;24.90;19.30;;;;;;;11.00;91.72;99715.34;5073693;28;20071;-77
2024/03/29 01:24:38;;;;;;;26.17;18.50;;;;;;;10.80;91.88;99721.81;5074595;28;20055;-78
2024/03/29 01:27:43;;;;;;;24.98;19.63;;;;;;;10.83;91.61;99710.78;5074546;28;20051;-77
2024/03/29 01:30:54;;;;;;;28.85;19.17;;;;;;;10.71;92.26;99730.81;5073521;28;20051;-78
2024/03/29 01:34:02;;;;;;;24.13;17.75;;;;;;;10.85;91.65;99732.09;5074303;28;20052;-76
2024/03/29 01:37:07;;;;;;;22.80;17.88;;;;;;;10.91;91.44;99739.56;5090444;28;20054;-77
2024/03/29 01:40:12;;;;;;;23.27;17.20;;;;;;;11.04;90.76;99746.25;5093376;28;20339;-77
2024/03/29 01:43:16;;;;;;;25.50;17.63;;;;;;;11.01;90.40;99745.72;5093689;28;20062;-76
2024/03/29 01:46:24;;;;;;;21.15;15.90;;;;;;;11.08;90.41;99754.84;5094369;28;20071;-77
2024/03/29 01:49:30;;;;;;;19.90;16.55;;;;;;;10.79;90.80;99773.81;5094249;28;20047;-76
2024/03/29 01:52:34;;;;;;;20.40;16.00;;;;;;;10.69;91.67;99761.47;5094276;28;20474;-77
2024/03/29 01:55:38;;;;;;;20.73;15.80;;;;;;;10.74;91.39;99767.22;5093872;28;20043;-77
2024/03/29 01:58:45;;;;;;;19.52;16.23;;;;;;;10.71;91.04;99775.56;5094204;28;20094;-78
2024/03/29 02:01:49;;;;;;;19.83;15.07;;;;;;;10.81;90.29;99779.06;5093921;28;20190;-79
2024/03/29 02:04:55;;;;;;;19.83;15.40;;;;;;;10.77;89.73;99767.75;5094228;28;20055;-77
2024/03/29 02:07:59;;;;;;;19.40;15.27;;;;;;;10.89;89.69;99771.91;5093290;28;20067;-77
2024/03/29 02:11:04;;;;;;;20.15;15.02;;;;;;;10.97;88.96;99769.34;5094008;28;20059;-78
2024/03/29 02:14:09;;;;;;;21.50;15.38;;;;;;;10.90;89.13;99767.41;5093435;28;20051;-77
2024/03/29 02:17:13;;;;;;;19.55;15.10;;;;;;;10.60;90.72;99773.94;5093848;28;20054;-77
2024/03/29 02:20:18;;;;;;;18.23;13.88;;;;;;;11.02;89.30;99779.63;5093309;28;20055;-77
2024/03/29 02:23:32;;;;;;;19.02;15.07;;;;;;;11.06;89.11;99762.19;5093969;28;20051;-78
2024/03/29 02:26:38;;;;;;;20.20;15.15;;;;;;;11.15;89.13;99761.31;5093300;28;20059;-77
2024/03/29 02:29:46;;;;;;;22.48;14.30;;;;;;;11.09;90.14;99762.75;5093862;28;20355;-78
2024/03/29 02:32:50;;;;;;;18.02;13.07;;;;;;;11.34;89.58;99754.91;5092496;28;20402;-77
2024/03/29 02:35:55;;;;;;;17.77;13.38;;;;;;;11.16;89.53;99764.84;5093587;28;20457;-78
2024/03/29 02:38:59;;;;;;;20.13;13.07;;;;;;;11.25;90.00;99777.34;5092764;28;20074;-77
2024/03/29 02:42:03;;;;;;;20.25;13.93;;;;;;;11.16;90.37;99767.53;5092133;28;20048;-77
2024/03/29 02:45:08;;;;;;;20.70;15.30;;;;;;;10.55;92.35;99778.91;5093606;28;20402;-77
2024/03/29 02:48:12;;;;;;;23.85;14.25;;;;;;;10.28;94.57;99754.72;5092781;28;20052;-77
2024/03/29 02:51:17;;;;;;;22.42;14.45;;;;;;;10.49;93.76;99771.47;5093079;28;20067;-78
2024/03/29 02:54:23;;;;;;;21.27;13.43;;;;;;;10.43;93.89;99774.72;5093636;28;20082;-77
2024/03/29 02:57:27;;;;;;;20.42;15.20;;;;;;;10.48;93.41;99788.53;5080641;28;20051;-77
2024/03/29 03:00:31;;;;;;;22.67;14.50;;;;;;;10.62;92.54;99787.19;5093166;28;20055;-77
2024/03/29 03:03:36;;;;;;;19.48;13.07;;;;;;;10.58;91.65;99789.34;5093420;28;20058;-76
2024/03/29 03:06:41;;;;;;;20.48;14.38;;;;;;;10.38;91.69;99787.72;5093258;28;20051;-77
2024/03/29 03:13:09;;;;;;;18.52;13.43;;;;;;;10.29;92.08;99805.56;5093784;28;20505;-78
2024/03/29 03:16:13;;;;;;;19.63;12.93;;;;;;;10.63;91.07;99797.78;5093223;28;20043;-78
2024/03/29 03:19:18;;;;;;;20.00;13.27;;;;;;;10.88;90.69;99818.56;5093481;28;20051;-78
2024/03/29 03:22:23;;;;;;;18.13;12.18;;;;;;;11.07;89.89;99813.09;5093061;28;20509;-78
2024/03/29 03:25:27;;;;;;;17.30;12.02;;;;;;;11.33;88.66;99815.03;5092379;28;20490;-78
2024/03/29 03:28:32;;;;;;;17.02;13.27;;;;;;;11.34;88.75;99814.88;5092355;28;20071;-77
2024/03/29 03:31:37;;;;;;;16.58;11.35;;;;;;;11.45;88.07;99803.91;5096614;28;20417;-77
2024/03/29 03:34:41;;;;;;;17.38;12.07;;;;;;;10.91;90.58;99809.38;5097366;28;20051;-77
2024/03/29 03:37:46;;;;;;;19.38;11.10;;;;;;;11.29;90.31;99800.22;5096224;28;20055;-78
2024/03/29 03:40:50;;;;;;;15.90;11.85;;;;;;;11.51;89.27;99805.97;5096692;28;20059;-78
2024/03/29 03:43:55;;;;;;;16.95;12.18;;;;;;;11.56;89.36;99802.81;5096799;28;20055;-78
2024/03/29 03:46:59;;;;;;;18.15;11.20;;;;;;;11.66;88.38;99814.34;5096695;28;20055;-78
2024/03/29 03:50:04;;;;;;;17.13;12.15;;;;;;;11.66;87.90;99817.88;5096276;28;20051;-78
2024/03/29 03:53:08;;;;;;;15.05;10.93;;;;;;;11.85;88.37;99829.50;5097092;28;20060;-78
2024/03/29 03:56:13;;;;;;;15.65;10.63;;;;;;;11.85;87.82;99833.00;5096871;28;20047;-78
2024/03/29 03:59:17;;;;;;;15.45;10.85;;;;;;;11.75;88.04;99840.34;5097003;28;20067;-78
2024/03/29 04:02:21;;;;;;;16.42;10.65;;;;;;;11.91;88.38;99853.91;5096441;28;20055;-77
2024/03/29 04:05:26;;;;;;;14.90;10.23;;;;;;;11.94;87.67;99855.47;5096503;28;20071;-77
2024/03/29 04:08:32;;;;;;;14.50;10.32;;;;;;;11.83;88.01;99837.72;5096143;28;20067;-77
2024/03/29 04:11:36;;;;;;;18.08;10.27;;;;;;;11.87;87.58;99822.13;5096643;28;20071;-77
2024/03/29 04:15:09;;;;;;;16.08;10.50;;;;;;;11.69;87.10;99838.25;5097153;28;20055;-78
2024/03/29 04:18:14;;;;;;;15.27;9.38;;;;;;;11.70;88.18;99826.53;5054156;28;20048;-77
2024/03/29 04:21:18;;;;;;;14.50;9.82;;;;;;;11.89;87.55;99847.84;5054145;28;20068;-77
2024/03/29 04:24:22;;;;;;;20.83;11.38;;;;;;;11.73;88.66;99858.44;5053780;28;20052;-78
2024/03/29 04:27:27;;;;;;;16.08;11.57;;;;;;;11.65;87.91;99843.06;5053980;28;20388;-77
2024/03/29 04:30:31;;;;;;;16.45;11.82;;;;;;;11.47;88.39;99852.13;5053689;28;20435;-78
2024/03/29 04:33:36;;;;;;;14.52;11.25;;;;;;;11.49;87.74;99844.75;5054049;28;20144;-77
2024/03/29 04:36:40;;;;;;;16.00;11.95;;;;;;;11.30;88.34;99850.28;5053984;28;20064;-77
2024/03/29 04:39:46;;;;;;;14.68;11.95;;;;;;;11.16;88.63;99848.09;5042330;28;20546;-77
2024/03/29 04:42:50;;;;;;;14.55;11.88;;;;;;;11.11;87.75;99851.22;5012824;28;20073;-77
2024/03/29 04:46:11;;;;;;;15.27;11.50;;;;;;;10.65;87.73;99857.53;5014047;28;20141;-77
2024/03/29 04:49:34;;;;;;;12.43;10.63;;;;;;;10.56;87.40;99866.47;5013834;28;20053;-77
2024/03/29 04:52:39;;;;;;;16.65;12.30;;;;;;;10.42;87.69;99865.09;5013590;28;20065;-78
2024/03/29 04:55:45;;;;;;;19.52;12.88;;;;;;;10.38;88.06;99873.56;5037930;28;20056;-76
2024/03/29 04:58:50;;;;;;;17.42;12.65;;;;;;;10.48;87.77;99877.09;5055183;28;20063;-76
2024/03/29 05:01:56;;;;;;;25.23;15.93;;;;;;;10.26;87.80;99862.19;5055531;28;20495;-75
2024/03/29 05:05:01;;;;;;;27.15;16.85;;;;;;;10.09;88.85;99880.81;5055339;28;20067;-76
2024/03/29 05:08:05;;;;;;;30.38;18.60;;;;;;;9.99;89.40;99898.72;5054984;28;20502;-76
2024/03/29 05:11:13;;;;;;;31.27;16.42;;;;;;;10.00;89.42;99906.63;5055000;28;20060;-75
2024/03/29 05:14:20;;;;;;;29.20;17.45;;;;;;;10.07;89.88;99917.66;5055012;28;20067;-79
2024/03/29 05:17:26;;;;;;;25.50;18.75;;;;;;;9.91;89.99;99912.84;5054960;28;20064;-78
2024/03/29 05:20:31;;;;;;;28.67;18.00;;;;;;;10.01;90.97;99923.56;5054697;28;20052;-77
2024/03/29 05:23:36;;;;;;;25.77;18.38;;;;;;;10.01;91.56;99923.56;5054762;28;20056;-77
2024/03/29 05:26:40;;;;;;;30.45;18.83;;;;;;;9.98;92.01;99913.97;5053179;28;20517;-77
2024/03/29 05:29:46;;;;;;;23.67;17.30;;;;;;;9.97;92.31;99922.16;5054592;28;20052;-78
2024/03/29 05:32:50;;;;;;;24.88;17.27;;;;;;;10.28;90.92;99934.44;5053701;28;20055;-77
2024/03/29 05:35:55;;;;;;;24.42;18.05;;;;;;;10.11;92.41;99933.31;5054490;28;20048;-77
2024/03/29 05:39:00;;;;;;;24.63;18.38;;;;;;;10.03;93.01;99929.63;5054233;28;20368;-77
2024/03/29 05:42:04;;;;;;;48.17;18.25;;;;;;;10.18;92.31;99936.28;5084914;28;20051;-77
2024/03/29 05:45:26;;;;;;;25.02;18.02;;;;;;;10.08;93.46;99935.41;5093991;28;20051;-77
2024/03/29 05:48:31;;;;;;;26.38;19.48;;;;;;;10.11;93.81;99929.78;5094544;28;20066;-77
2024/03/29 05:51:35;;;;;;;37.03;20.90;;;;;;;9.91;94.48;99944.16;5094423;28;20043;-77
2024/03/29 05:54:44;;;;;;;33.63;21.23;;;;;;;10.01;95.48;99967.31;5094194;28;20047;-77
2024/03/29 05:57:48;;;;;;;29.30;21.20;;;;;;;10.38;94.29;99948.69;5094294;28;20051;-77
2024/03/29 06:00:53;;;;;;;39.13;23.30;;;;;;;10.16;95.13;99923.03;5094363;28;20394;-77
2024/03/29 06:04:04;;;;;;;33.22;21.92;;;;;;;10.03;96.43;99924.25;5094254;28;20105;-77
2024/03/29 06:07:08;;;;;;;29.13;22.65;;;;;;;10.30;96.28;99916.38;5094084;28;20047;-77
2024/03/29 06:10:14;;;;;;;43.35;25.67;;;;;;;10.22;96.38;99913.56;5094144;28;20051;-77
2024/03/29 06:20:06;;;;;;;36.88;26.95;;;;;;;10.55;96.52;99921.13;5093969;28;20051;-77
2024/03/29 06:23:11;;;;;;;38.78;27.10;;;;;;;10.56;96.69;99921.97;5089143;28;20063;-76
2024/03/29 06:26:15;;;;;;;39.55;28.05;;;;;;;10.65;97.26;99935.38;5086628;28;20047;-77
2024/03/29 06:29:19;;;;;;;39.88;29.10;;;;;;;10.71;97.20;99936.63;5091764;28;20430;-77
2024/03/29 06:32:24;;;;;;;41.90;30.83;;;;;;;10.79;97.34;99948.31;5093551;28;20059;-78
2024/03/29 06:35:29;;;;;;;41.83;28.90;;;;;;;11.04;96.59;99946.81;5093571;28;20524;-81
2024/03/29 06:38:34;;;;;;;42.35;28.50;;;;;;;11.18;95.50;99950.88;5093515;28;20039;-78
2024/03/29 06:41:39;;;;;;;46.10;30.80;;;;;;;11.20;97.17;99954.25;5093218;28;20063;-76
2024/03/29 06:44:43;;;;;;;51.17;32.90;;;;;;;11.29;97.27;99953.34;5086427;28;20149;-78
2024/03/29 06:47:48;;;;;;;50.65;32.72;;;;;;;11.49;96.63;99963.00;5084073;28;20051;-76
2024/03/29 06:50:53;;;;;;;50.10;31.58;;;;;;;11.59;97.00;99970.03;5088291;28;20063;-77
2024/03/29 06:54:00;;;;;;;50.90;33.03;;;;;;;11.61;97.19;99981.47;5080731;28;20051;-77
2024/03/29 06:57:06;;;;;;;51.65;33.15;;;;;;;11.67;96.61;99991.63;5087842;28;20086;-77
2024/03/29 07:00:11;;;;;;;58.28;34.53;;;;;;;11.65;96.88;99996.28;5093000;28;20056;-77
2024/03/29 07:03:18;;;;;;;57.38;34.92;;;;;;;11.58;97.03;99997.91;5093370;28;20055;-77
2024/03/29 07:06:23;;;;;;;60.45;36.13;;;;;;;11.36;98.06;99967.88;5092943;28;20055;-77
2024/03/29 07:09:27;;;;;;;60.30;34.33;;;;;;;11.48;98.03;99991.72;5093319;28;20051;-77
2024/03/29 07:12:31;;;;;;;53.75;31.98;;;;;;;11.64;97.37;100005.38;5092067;28;20059;-77
2024/03/29 07:15:37;;;;;;;49.35;30.33;;;;;;;11.29;98.97;99969.47;5093267;28;20040;-76
2024/03/29 07:18:42;;;;;;;55.58;33.50;;;;;;;11.37;99.13;99965.06;5092469;28;20048;-77
2024/03/29 07:21:47;;;;;;;47.67;31.25;;;;;;;11.53;97.91;99972.47;5072627;28;20412;-77
2024/03/29 07:24:51;;;;;;;45.88;31.00;;;;;;;11.61;97.57;99959.97;5072109;28;20147;-76
2024/03/29 07:27:56;;;;;;;49.28;30.65;;;;;;;11.70;96.73;99972.53;5071724;28;20111;-76
2024/03/29 07:31:08;;;;;;;47.55;33.15;;;;;;;11.86;95.96;99976.38;5072709;28;20051;-76
2024/03/29 07:34:13;;;;;;;49.10;34.00;;;;;;;11.94;95.87;99976.50;5072445;28;20414;-83
2024/03/29 07:37:18;;;;;;;47.45;32.60;;;;;;;12.17;94.04;99986.63;5071950;28;20044;-82
2024/03/29 07:40:22;;;;;;;54.28;34.25;;;;;;;12.03;95.19;99989.00;5071202;28;20064;-76
2024/03/29 07:43:38;;;;;;;50.47;32.00;;;;;;;11.95;95.47;99999.72;5073089;28;20048;-80
2024/03/29 07:46:46;;;;;;;51.00;31.40;;;;;;;11.90;95.64;99977.81;5073047;28;20052;-80
2024/03/29 07:49:50;;;;;;;45.65;31.70;;;;;;;11.86;95.11;99987.16;5072203;28;20059;-81
2024/03/29 07:52:54;;;;;;;45.83;31.35;;;;;;;11.71;95.68;99995.75;5072150;28;20056;-79
2024/03/29 07:55:59;;;;;;;42.25;30.00;;;;;;;11.78;95.72;100000.53;5071886;28;20382;-81
2024/03/29 07:59:04;;;;;;;44.08;30.42;;;;;;;11.77;96.22;99998.81;5072709;28;20044;-79
2024/03/29 08:02:09;;;;;;;43.85;30.52;;;;;;;11.81;96.28;100000.19;5072685;28;20067;-81
2024/03/29 08:05:13;;;;;;;45.80;32.85;;;;;;;11.70;96.60;99998.59;5072633;28;20103;-82
2024/03/29 08:08:17;;;;;;;48.60;31.70;;;;;;;11.93;96.20;100004.38;5072447;28;20048;-80
2024/03/29 08:11:22;;;;;;;41.97;29.85;;;;;;;12.27;94.61;100005.41;5090669;28;20040;-84
2024/03/29 08:14:27;;;;;;;39.05;29.98;;;;;;;12.46;93.16;100002.56;5092287;28;20036;-81
2024/03/29 08:17:32;;;;;;;44.67;29.55;;;;;;;12.20;94.37;100005.16;5093542;28;20044;-79
2024/03/29 08:20:37;;;;;;;37.80;28.23;;;;;;;12.13;93.94;99979.88;5076921;28;20045;-76
2024/03/29 08:23:46;;;;;;;38.17;28.95;;;;;;;11.92;96.19;99990.09;5090252;28;20051;-79
2024/03/29 08:26:51;;;;;;;39.40;28.45;;;;;;;12.02;95.33;99993.56;5081728;28;20063;-81
2024/03/29 08:29:55;;;;;;;38.70;26.73;;;;;;;12.43;94.23;99999.31;5091902;28;20047;-79
2024/03/29 08:33:02;;;;;;;39.30;28.02;;;;;;;12.34;93.42;100007.31;5073575;28;20047;-80
2024/03/29 08:36:08;;;;;;;36.28;26.45;;;;;;;12.65;93.42;100020.38;5074223;28;20402;-81
2024/03/29 08:39:16;;;;;;;37.65;27.65;;;;;;;12.30;94.74;100019.38;5089320;28;20036;-80
2024/03/29 08:42:21;;;;;;;36.60;26.60;;;;;;;12.62;94.35;100026.06;5093785;28;20079;-80
2024/03/29 08:45:25;;;;;;;36.35;27.65;;;;;;;12.76;92.64;100037.16;5094771;28;20036;-81
2024/03/29 08:48:30;;;;;;;38.65;28.58;;;;;;;12.77;92.71;100049.59;5074743;28;20435;-79
2024/03/29 08:51:34;;;;;;;32.05;24.58;;;;;;;12.76;92.31;100047.06;5078994;28;20063;-80
2024/03/29 08:54:39;;;;;;;36.00;25.50;;;;;;;12.51;92.36;100032.56;5094807;28;20459;-81
2024/03/29 08:57:43;;;;;;;35.20;26.90;;;;;;;12.80;93.00;100041.22;5094177;28;20040;-79
2024/03/29 09:00:55;;;;;;;31.55;24.60;;;;;;;12.85;91.66;100062.28;5094790;28;20036;-78
2024/03/29 09:04:00;;;;;;;35.33;25.13;;;;;;;12.68;92.75;100063.16;5093948;28;20052;-78
2024/03/29 09:07:05;;;;;;;31.65;25.13;;;;;;;13.07;91.47;100056.41;5094689;28;20394;-79
2024/03/29 09:10:10;;;;;;;35.22;27.30;;;;;;;13.05;91.11;100063.78;5093618;28;20048;-80
2024/03/29 09:13:15;;;;;;;33.30;25.25;;;;;;;13.19;90.65;100057.84;5094018;28;20479;-78
2024/03/29 09:16:19;;;;;;;35.08;26.48;;;;;;;13.33;90.13;100053.72;5094557;28;20040;-81
2024/03/29 09:19:24;;;;;;;36.00;24.80;;;;;;;13.28;89.66;100038.00;5094113;28;20040;-81
2024/03/29 09:22:29;;;;;;;34.45;27.38;;;;;;;13.34;89.63;100037.38;5093844;28;20036;-80
2024/03/29 09:25:34;;;;;;;32.80;25.60;;;;;;;13.53;89.38;100037.16;5074226;28;20037;-80
2024/03/29 09:28:39;;;;;;;36.10;25.48;;;;;;;13.59;89.32;100046.44;5072870;28;20483;-78
2024/03/29 09:31:44;;;;;;;34.80;26.75;;;;;;;13.88;88.24;100051.44;5073840;28;20387;-79
2024/03/29 09:34:50;;;;;;;31.65;24.83;;;;;;;13.77;87.82;100049.91;5073341;28;20040;-80
2024/03/29 09:37:56;;;;;;;35.10;26.27;;;;;;;13.88;88.02;100052.31;5073941;28;20044;-81
2024/03/29 09:41:23;;;;;;;34.53;26.98;;;;;;;13.99;87.53;100057.41;5073887;28;20053;-77
2024/03/29 09:44:36;;;;;;;35.75;26.23;;;;;;;13.93;87.78;100057.19;5083821;28;20044;-81
2024/03/29 09:47:42;;;;;;;32.80;27.25;;;;;;;14.16;86.77;100061.84;5094123;28;20519;-80
2024/03/29 09:50:48;;;;;;;38.00;27.95;;;;;;;14.48;86.02;100054.84;5073793;28;20033;-81
2024/03/29 09:53:55;;;;;;;34.28;27.23;;;;;;;14.43;85.40;100047.25;5072713;28;20507;-78
2024/03/29 09:57:00;;;;;;;36.33;28.25;;;;;;;14.61;84.22;100055.22;5073521;28;20041;-76
2024/03/29 10:00:05;;;;;;;38.92;28.13;;;;;;;14.25;85.16;100043.81;5071123;28;20479;-77
2024/03/29 10:03:11;;;;;;;34.88;26.52;;;;;;;14.52;84.88;100035.44;5072517;28;20044;-76
2024/03/29 10:06:19;;;;;;;39.42;29.80;;;;;;;14.64;85.17;100034.09;5073108;28;20044;-77
2024/03/29 10:09:27;;;;;;;38.50;29.10;;;;;;;14.59;84.62;100036.44;5072415;28;20045;-76
2024/03/29 10:12:31;;;;;;;36.85;28.80;;;;;;;14.72;84.59;100036.81;5072895;28;20044;-77
2024/03/29 10:15:38;;;;;;;38.92;29.48;;;;;;;14.75;84.96;100025.66;5071561;28;20040;-77
2024/03/29 10:18:44;;;;;;;34.83;29.52;;;;;;;14.79;84.74;100028.84;5072257;28;20037;-77
2024/03/29 10:21:49;;;;;;;35.75;29.40;;;;;;;14.90;84.27;100029.38;5073035;28;20044;-77
2024/03/29 10:24:53;;;;;;;41.08;31.00;;;;;;;14.62;85.29;100036.13;5072116;28;20048;-82
2024/03/29 10:27:59;;;;;;;37.90;30.98;;;;;;;14.63;85.78;100039.69;5071984;28;20048;-79
2024/03/29 10:31:05;;;;;;;44.25;32.08;;;;;;;14.28;87.26;100035.38;5072627;28;20040;-81
2024/03/29 10:34:10;;;;;;;39.08;29.52;;;;;;;14.27;87.18;100028.28;5071889;28;20507;-80
2024/03/29 10:37:16;;;;;;;42.72;32.92;;;;;;;14.44;87.08;100027.34;5072603;28;20040;-79
2024/03/29 10:40:24;;;;;;;42.83;32.03;;;;;;;14.51;86.26;100017.56;5071069;28;20040;-82
2024/03/29 10:43:30;;;;;;;43.72;33.05;;;;;;;14.74;85.85;100015.84;5071166;28;20041;-82
2024/03/29 10:46:38;;;;;;;39.90;32.17;;;;;;;14.83;86.05;100016.72;5070030;28;20040;-79
2024/03/29 10:49:44;;;;;;;41.35;31.70;;;;;;;15.06;85.46;100011.47;5082012;28;20044;-79
2024/03/29 10:52:50;;;;;;;43.33;31.98;;;;;;;15.10;86.30;100007.38;5091515;28;20040;-79
2024/03/29 10:55:57;;;;;;;40.45;31.58;;;;;;;14.90;86.07;100010.47;5091465;28;20039;-79
2024/03/29 10:59:13;;;;;;;35.63;28.60;;;;;;;15.22;85.61;100019.53;5085059;28;20044;-81
2024/03/29 11:02:47;;;;;;;36.95;29.30;;;;;;;15.44;85.70;100014.22;5076214;28;20048;-81
2024/03/29 11:05:55;;;;;;;45.42;32.90;;;;;;;15.52;84.68;100024.22;5092529;28;20052;-77
2024/03/29 11:09:01;;;;;;;39.08;31.00;;;;;;;15.68;84.13;100016.00;5092051;28;20040;-80
2024/03/29 11:12:10;;;;;;;38.42;29.55;;;;;;;16.16;82.74;100009.53;5092715;28;20040;-77
2024/03/29 11:15:28;;;;;;;35.10;29.55;;;;;;;16.65;80.43;100010.03;5092694;28;20040;-79
2024/03/29 11:18:34;;;;;;;34.50;27.27;;;;;;;16.49;81.40;100005.53;5092443;28;20040;-79
2024/03/29 11:21:39;;;;;;;37.13;27.05;;;;;;;16.44;81.88;100012.56;5092660;28;20044;-80
2024/03/29 11:24:44;;;;;;;36.13;26.92;;;;;;;16.79;80.92;100003.81;5092005;28;20467;-80
2024/03/29 11:27:49;;;;;;;34.80;28.85;;;;;;;16.79;80.21;99999.25;5092700;28;20453;-83
2024/03/29 11:30:59;;;;;;;35.03;27.40;;;;;;;16.87;79.91;99996.47;5072517;28;20048;-77
2024/03/29 11:34:09;;;;;;;34.55;28.65;;;;;;;16.60;81.76;99982.63;5071728;28;20055;-77
2024/03/29 11:37:15;;;;;;;35.58;25.98;;;;;;;16.66;80.61;99976.50;5072009;28;20051;-77
2024/03/29 11:40:19;;;;;;;33.88;26.85;;;;;;;16.79;81.35;99974.00;5071364;28;20051;-77
2024/03/29 11:43:25;;;;;;;35.38;27.58;;;;;;;16.93;80.38;99973.19;5071346;28;20051;-77
2024/03/29 11:46:35;;;;;;;33.22;27.00;;;;;;;17.27;79.91;99976.22;5072039;28;20043;-77
2024/03/29 11:49:39;;;;;;;35.83;27.70;;;;;;;16.79;81.01;99960.44;5070889;28;20059;-77
2024/03/29 11:52:44;;;;;;;36.35;26.75;;;;;;;16.91;80.81;99965.22;5075666;28;20063;-77
2024/03/29 11:55:54;;;;;;;36.25;27.63;;;;;;;16.68;82.57;99953.63;5083998;28;20055;-77
2024/03/29 11:59:01;;;;;;;33.85;26.02;;;;;;;16.95;82.10;99954.03;5094947;28;20051;-77
2024/03/29 12:02:12;;;;;;;37.15;28.20;;;;;;;16.90;82.35;99947.31;5095203;28;20048;-77
2024/03/29 12:05:17;;;;;;;35.67;28.52;;;;;;;16.98;82.31;99946.38;5075961;28;20075;-77
2024/03/29 12:08:22;;;;;;;40.72;28.92;;;;;;;17.09;82.28;99939.63;5079275;28;20055;-77
2024/03/29 12:11:28;;;;;;;32.13;28.15;;;;;;;17.24;82.07;99930.47;5095520;28;20067;-76
2024/03/29 12:14:35;;;;;;;34.05;27.10;;;;;;;17.33;81.83;99932.03;5093174;28;20067;-77
2024/03/29 12:17:42;;;;;;;36.45;28.55;;;;;;;17.81;80.03;99927.03;5095722;28;20043;-78
2024/03/29 12:20:49;;;;;;;35.72;27.02;;;;;;;18.05;79.08;99927.53;5095882;28;20502;-77
2024/03/29 12:23:54;;;;;;;36.95;27.40;;;;;;;18.07;79.28;99920.03;5095064;28;20047;-77
2024/03/29 12:26:59;;;;;;;32.60;26.35;;;;;;;18.13;78.76;99911.13;5095682;28;20043;-77
2024/03/29 12:30:04;;;;;;;30.02;25.63;;;;;;;18.42;78.57;99923.72;5094884;28;20052;-78
2024/03/29 12:33:16;;;;;;;32.35;26.17;;;;;;;18.37;78.79;99926.16;5095415;28;20398;-77
2024/03/29 12:36:26;;;;;;;32.60;26.25;;;;;;;18.39;78.51;99928.72;5094636;28;20052;-77
2024/03/29 12:39:33;;;;;;;33.40;26.00;;;;;;;18.37;78.00;99926.16;5094933;28;20502;-77
2024/03/29 12:42:39;;;;;;;31.02;24.58;;;;;;;18.62;77.61;99916.59;5067985;28;20466;-76
2024/03/29 12:45:45;;;;;;;28.13;23.65;;;;;;;18.73;78.05;99916.06;5065474;28;20043;-76
2024/03/29 12:48:58;;;;;;;29.80;23.08;;;;;;;18.89;77.52;99920.34;5074648;28;20048;-75
2024/03/29 12:52:05;;;;;;;29.10;24.58;;;;;;;19.06;76.59;99916.28;5074283;28;20514;-77
2024/03/29 12:55:10;;;;;;;29.25;23.95;;;;;;;19.10;76.72;99912.13;5073165;28;20403;-76
2024/03/29 12:58:17;;;;;;;27.92;24.10;;;;;;;19.13;77.13;99900.00;5050720;28;20048;-76
2024/03/29 13:01:22;;;;;;;32.00;24.23;;;;;;;19.16;76.98;99897.72;5073429;28;20055;-77
2024/03/29 13:04:27;;;;;;;29.35;24.45;;;;;;;19.19;77.29;99891.03;5074092;28;20048;-76
2024/03/29 13:07:32;;;;;;;27.73;22.98;;;;;;;19.15;77.21;99887.88;5072600;28;20055;-77
2024/03/29 13:10:38;;;;;;;32.05;22.70;;;;;;;19.17;77.33;99879.50;5074536;28;20139;-76
2024/03/29 13:13:43;;;;;;;29.42;23.42;;;;;;;19.26;77.11;99884.59;5072827;28;20048;-77
2024/03/29 13:16:48;;;;;;;30.25;23.63;;;;;;;19.32;77.10;99885.66;5071299;28;20064;-76
2024/03/29 13:19:53;;;;;;;31.35;21.95;;;;;;;19.51;76.85;99895.81;5054187;28;20388;-76
2024/03/29 13:22:59;;;;;;;28.85;21.48;;;;;;;19.61;76.46;99893.56;5052937;28;20427;-77
2024/03/29 13:26:04;;;;;;;30.15;22.48;;;;;;;19.68;76.14;99888.97;5054462;28;20048;-77
2024/03/29 13:29:13;;;;;;;29.45;23.15;;;;;;;19.69;76.15;99885.22;5053935;28;20063;-77
2024/03/29 13:32:18;;;;;;;25.33;22.17;;;;;;;19.67;76.46;99891.91;5058861;28;20063;-77
2024/03/29 13:35:22;;;;;;;28.95;23.10;;;;;;;19.66;76.55;99884.78;5072615;28;20067;-74
2024/03/29 13:38:27;;;;;;;28.17;22.33;;;;;;;19.68;76.92;99888.97;5068902;28;20055;-76
2024/03/29 13:41:31;;;;;;;28.52;21.50;;;;;;;19.90;76.05;99882.34;5072394;28;20592;-77
2024/03/29 13:44:36;;;;;;;27.88;21.58;;;;;;;20.05;75.95;99883.00;5090497;28;20062;-77
2024/03/29 13:47:42;;;;;;;28.83;21.77;;;;;;;20.07;76.11;99893.72;5089266;28;20051;-77
2024/03/29 13:50:47;;;;;;;29.33;23.42;;;;;;;20.04;76.19;99888.66;5090991;28;20047;-77
2024/03/29 13:53:51;;;;;;;28.08;23.83;;;;;;;20.10;76.00;99888.66;5090682;28;20055;-77
2024/03/29 13:56:55;;;;;;;30.65;22.17;;;;;;;19.98;76.11;99884.88;5090610;28;20055;-77
2024/03/29 14:00:00;;;;;;;28.35;21.48;;;;;;;20.08;76.12;99881.75;5093630;28;20052;-78
2024/03/29 14:03:05;;;;;;;26.67;21.35;;;;;;;20.08;76.46;99884.47;5093207;28;20118;-78
2024/03/29 14:06:10;;;;;;;26.85;20.83;;;;;;;19.93;76.46;99876.47;5092859;28;20051;-78
2024/03/29 14:09:16;;;;;;;28.88;21.40;;;;;;;19.78;78.05;99872.25;5093015;28;20060;-77
2024/03/29 14:12:24;;;;;;;26.40;22.20;;;;;;;19.79;77.71;99868.47;5094183;28;20051;-76
2024/03/29 14:15:29;;;;;;;26.23;22.00;;;;;;;19.69;78.46;99863.44;5094307;28;20051;-76
2024/03/29 14:18:37;;;;;;;31.60;23.33;;;;;;;19.67;78.42;99867.41;5094389;28;20047;-76
2024/03/29 14:21:41;;;;;;;26.67;22.05;;;;;;;19.48;78.94;99869.84;5094370;28;20055;-76